ドバイ の空港の天気 - METARとTAF

ドバイ国際空港 ( OMDB / DXB ) - アラブ首長国連邦 ドバイ
飛行場実況気象(Metar)
観測時間02/28 04:00 GST (02/28 00:00 UTC)
風向・風速南 2m/s
視程10km以上
天気現象
なし
気温17℃
湿度72%
気圧1018hPa
METAROMDB 280000Z 18003KT 130V240 CAVOK 17/12 Q1018 NOSIG
過去の天気等 Google飛行場航空写真 Wunderground天気予報

過去48時間のMETAR

飛行場予報(TAF)
発表時間: 2/28 02:56 GST (2/27 22:56 UTC)
予報対象時間: 28日4時 GST ~ 1日10時 GST
風向・風速南南東 3m/s
視程8,000m
なし
28日5時 GST から 確率 30% で
視程4,000m
天気現象煙霧
28日11時 GST ~ 28日13時 GST に徐々に
風向・風速北北西 5m/s
28日21時 GST ~ 28日23時 GST に徐々に
風向・風速南南東 3m/s
1日5時 GST から 確率 30% で
視程3,000m
天気現象もや
TAF OMDB 272256Z 2800/0106 15005KT 8000 NSC
PROB30 2801/2805 4000 HZ
BECMG 2807/2809 33010KT
BECMG 2817/2819 16005KT
PROB30 0101/0105 3000 BR